Time;durP1;ratioP1;P1;durP2;ratioP2;P2;SDS_P1;SDS_P2;PMS_P1;PMS_P2;Temp;Humidity;BMP_temperature;BMP_pressure;BME280_temperature;BME280_humidity;BME280_pressure;Samples;Min_cycle;Max_cycle;Signal;HPM_P1;HPM_P2
2021/12/21 00:02:05;;;;;;;4.78;2.40;;;;;;;-0.62;83.35;101738.25;1654767;85;21591;-73
2021/12/21 00:04:31;;;;;;;3.98;2.12;;;;;;;-0.62;83.33;101745.87;1674916;84;21400;-73
2021/12/21 00:06:57;;;;;;;6.62;2.50;;;;;;;-0.62;83.38;101739.92;1655735;85;22197;-73
2021/12/21 00:09:23;;;;;;;4.28;2.60;;;;;;;-0.63;83.36;101744.12;1654629;85;21400;-73
2021/12/21 00:11:49;;;;;;;4.05;2.35;;;;;;;-0.64;83.36;101750.41;1680467;85;20937;-73
2021/12/21 00:14:59;;;;;;;6.30;3.00;;;;;;;-0.67;83.33;101754.54;1682424;84;21522;-73
2021/12/21 00:17:08;;;;;;;4.72;2.60;;;;;;;-0.66;83.35;101749.06;1649952;85;20961;-73
2021/12/21 00:21:52;;;;;;;10.10;3.60;;;;;;;-0.64;83.33;101745.33;1654603;86;20932;-73
2021/12/21 00:24:19;;;;;;;4.33;2.60;;;;;;;-0.64;83.34;101747.47;1653952;86;20925;-73
2021/12/21 00:26:40;;;;;;;8.68;3.85;;;;;;;-0.63;83.35;101739.45;1649492;83;21892;-73
2021/12/21 00:29:06;;;;;;;6.03;2.77;;;;;;;-0.62;83.35;101747.53;1654984;85;21595;-73
2021/12/21 00:31:36;;;;;;;11.03;3.50;;;;;;;-0.63;83.36;101747.94;1646442;85;20882;-73
2021/12/21 00:34:06;;;;;;;5.65;2.87;;;;;;;-0.62;83.36;101747.53;1632373;85;20953;-73
2021/12/21 00:36:34;;;;;;;5.28;2.50;;;;;;;-0.62;83.36;101740.79;1635649;86;20902;-73
2021/12/21 00:39:06;;;;;;;5.45;2.87;;;;;;;-0.61;83.34;101750.55;1655059;85;20933;-73
2021/12/21 00:41:33;;;;;;;6.55;2.60;;;;;;;-0.60;83.34;101751.89;1654946;85;20942;-73
2021/12/21 00:43:59;;;;;;;4.85;2.83;;;;;;;-0.58;83.36;101754.11;1649346;85;20933;-73
2021/12/21 00:46:26;;;;;;;5.58;2.83;;;;;;;-0.57;83.37;101758.39;1654745;86;20905;-73
2021/12/21 00:48:55;;;;;;;6.92;2.85;;;;;;;-0.56;83.34;101756.72;1654793;85;20887;-73
2021/12/21 00:51:25;;;;;;;5.33;2.87;;;;;;;-0.55;83.34;101764.41;1653414;84;21049;-73
2021/12/21 00:53:52;;;;;;;5.55;2.83;;;;;;;-0.53;83.36;101761.94;1639568;86;20918;-73
2021/12/21 00:56:18;;;;;;;7.22;3.08;;;;;;;-0.54;83.31;101763.61;1674434;85;25117;-73
2021/12/21 00:58:44;;;;;;;5.28;2.83;;;;;;;-0.52;83.31;101771.30;1653709;85;21632;-73
2021/12/21 01:01:10;;;;;;;6.67;2.83;;;;;;;-0.51;83.35;101764.99;1628235;86;20898;-73
2021/12/21 01:03:44;;;;;;;4.03;2.83;;;;;;;-0.49;83.35;101770.15;1643749;86;20897;-73
2021/12/21 01:06:15;;;;;;;5.83;2.92;;;;;;;-0.49;83.35;101769.75;1630863;84;20909;-73
2021/12/21 01:08:54;;;;;;;7.00;2.70;;;;;;;-0.48;83.33;101764.27;1646212;86;20977;-73
2021/12/21 01:11:18;;;;;;;5.42;2.90;;;;;;;-0.50;83.33;101764.20;1653959;85;20950;-73
2021/12/21 01:16:22;;;;;;;5.92;2.77;;;;;;;-0.49;83.33;101768.87;1635104;86;20934;-73
2021/12/21 01:18:40;;;;;;;5.67;3.27;;;;;;;-0.50;83.34;101760.78;1628349;86;20969;-73
2021/12/21 01:21:08;;;;;;;5.03;2.60;;;;;;;-0.49;83.31;101771.42;1626944;86;20957;-73
2021/12/21 01:26:36;;;;;;;6.58;3.02;;;;;;;-0.52;83.30;101773.84;1644072;85;20961;-73
2021/12/21 01:29:06;;;;;;;7.10;3.35;;;;;;;-0.52;83.31;101776.39;1652514;85;20933;-73
2021/12/21 01:31:44;;;;;;;5.33;2.95;;;;;;;-0.52;83.30;101776.39;1653338;85;20918;-73
2021/12/21 01:36:42;;;;;;;4.60;2.67;;;;;;;-0.57;83.28;101776.56;1654658;85;20949;-73
2021/12/21 01:39:44;;;;;;;4.10;2.55;;;;;;;-0.59;83.27;101778.16;1653896;85;20933;-73
2021/12/21 01:41:45;;;;;;;4.22;2.75;;;;;;;-0.61;83.27;101778.48;1650673;86;20897;-73
2021/12/21 01:51:59;;;;;;;3.80;2.40;;;;;;;-0.71;83.26;101783.52;1661335;83;20942;-73
2021/12/21 01:54:26;;;;;;;6.28;2.22;;;;;;;-0.75;83.25;101785.05;1682237;85;20914;-73
2021/12/21 01:56:54;;;;;;;5.60;2.75;;;;;;;-0.79;83.23;101781.02;1709149;83;20937;-74
2021/12/21 01:59:20;;;;;;;6.05;2.72;;;;;;;-0.83;83.24;101779.98;1684277;83;20941;-73
2021/12/21 02:01:46;;;;;;;4.72;2.90;;;;;;;-0.84;83.28;101776.11;1669173;84;20982;-73
2021/12/21 02:04:15;;;;;;;5.87;3.30;;;;;;;-0.89;83.23;101779.69;1664671;84;20921;-73
2021/12/21 02:06:40;;;;;;;5.72;2.75;;;;;;;-0.92;83.23;101777.40;1672633;83;20957;-73
2021/12/21 02:09:06;;;;;;;7.10;2.70;;;;;;;-0.95;83.27;101778.12;1655461;83;22048;-73
2021/12/21 02:11:32;;;;;;;4.47;2.42;;;;;;;-0.98;83.23;101780.91;1654643;85;20902;-73
2021/12/21 02:13:59;;;;;;;7.25;2.80;;;;;;;-1.02;83.27;101782.42;1646174;86;21632;-73
2021/12/21 02:19:25;;;;;;;5.28;2.75;;;;;;;-1.05;83.27;101787.38;1654663;86;20921;-73
2021/12/21 02:21:51;;;;;;;3.17;2.25;;;;;;;-1.07;83.25;101787.70;1658669;84;20885;-73
2021/12/21 02:24:19;;;;;;;2.47;1.85;;;;;;;-1.11;83.19;101787.08;1654210;85;20965;-73
2021/12/21 02:27:16;;;;;;;3.05;2.08;;;;;;;-1.16;83.16;101784.30;1681405;82;20957;-73
2021/12/21 02:29:28;;;;;;;3.87;2.20;;;;;;;-1.17;83.22;101776.62;1645682;85;20967;-73
2021/12/21 02:31:55;;;;;;;5.00;1.72;;;;;;;-1.20;83.20;101779.87;1648087;85;20929;-73
2021/12/21 02:34:23;;;;;;;3.67;1.75;;;;;;;-1.24;83.13;101779.23;1672059;84;20918;-73
2021/12/21 02:36:54;;;;;;;3.67;2.10;;;;;;;-1.27;83.17;101777.81;1648047;85;20874;-73
2021/12/21 02:39:21;;;;;;;4.45;1.70;;;;;;;-1.29;83.17;101769.26;1648126;85;21428;-73
2021/12/21 02:41:47;;;;;;;2.05;1.30;;;;;;;-1.32;83.12;101770.77;1662241;85;20906;-74
2021/12/21 02:44:14;;;;;;;;;;;;;;;-1.34;83.14;101768.16;1657432;86;20982;-74
2021/12/21 02:46:41;;;;;;;4.12;1.52;;;;;;;-1.36;83.10;101764.67;1648261;85;20154;-74
2021/12/21 02:49:09;;;;;;;4.15;1.32;;;;;;;-1.39;83.09;101762.84;1675515;85;20902;-73
2021/12/21 02:51:40;;;;;;;2.52;1.50;;;;;;;-1.43;83.05;101755.87;1675292;85;20970;-73
2021/12/21 02:54:07;;;;;;;3.40;1.40;;;;;;;-1.46;83.02;101751.91;1662551;85;20914;-74
2021/12/21 02:56:33;;;;;;;1.37;1.10;;;;;;;-1.46;83.01;101749.38;1666191;84;21431;-74
2021/12/21 02:58:59;;;;;;;2.45;1.20;;;;;;;-1.49;82.98;101748.35;1649011;85;20905;-74
2021/12/21 03:01:25;;;;;;;2.25;1.20;;;;;;;-1.52;82.92;101741.86;1648253;87;21640;-74
2021/12/21 03:03:52;;;;;;;5.55;1.52;;;;;;;-1.56;82.86;101737.45;1655065;85;21289;-74
2021/12/21 03:08:57;;;;;;;1.67;1.27;;;;;;;-1.61;82.89;101738.87;1638618;85;21493;-74
2021/12/21 03:11:35;;;;;;;2.47;1.25;;;;;;;-1.64;82.84;101737.45;1647711;85;21131;-74
2021/12/21 03:13:55;;;;;;;6.97;6.28;;;;;;;-1.66;82.81;101741.19;1662573;85;20917;-74
2021/12/21 03:16:21;;;;;;;7.40;5.50;;;;;;;-1.69;82.84;101735.55;1673202;84;20886;-74
2021/12/21 03:18:47;;;;;;;4.28;2.20;;;;;;;-1.70;82.81;101742.69;1674400;85;20874;-74
2021/12/21 03:21:14;;;;;;;3.10;1.75;;;;;;;-1.71;82.78;101740.08;1675670;85;20922;-74
2021/12/21 03:23:40;;;;;;;;;;;;;;;-1.72;82.84;101750.61;1666080;85;20950;-74
2021/12/21 03:26:07;;;;;;;2.70;1.20;;;;;;;-1.70;82.86;101750.69;1658533;85;20501;-74
2021/12/21 03:28:33;;;;;;;;;;;;;;;-1.69;82.89;101753.70;1665207;85;20886;-73
2021/12/21 03:30:59;;;;;;;2.27;0.93;;;;;;;-1.70;82.79;101761.70;1657423;85;21394;-73
2021/12/21 03:33:27;;;;;;;2.72;1.10;;;;;;;-1.73;82.84;101755.20;1665433;85;20909;-73
2021/12/21 03:35:53;;;;;;;1.98;1.02;;;;;;;-1.74;82.79;101765.27;1654596;85;21459;-74
2021/12/21 03:38:18;;;;;;;4.03;1.12;;;;;;;-1.75;82.88;101764.39;1654943;86;20917;-74
2021/12/21 03:40:45;;;;;;;1.72;0.90;;;;;;;-1.76;82.81;101764.31;1654766;86;20873;-73
2021/12/21 03:43:11;;;;;;;1.67;0.75;;;;;;;-1.77;82.80;101760.04;1665587;85;20862;-73
2021/12/21 03:45:45;;;;;;;3.10;1.12;;;;;;;-1.78;82.81;101759.56;1670496;84;20938;-73
2021/12/21 03:48:06;;;;;;;1.30;0.88;;;;;;;-1.79;82.76;101756.55;1654396;83;20921;-73
2021/12/21 03:50:33;;;;;;;1.90;1.10;;;;;;;-1.81;82.78;101755.20;1675036;85;20882;-73
2021/12/21 03:52:59;;;;;;;3.05;1.37;;;;;;;-1.82;82.77;101753.45;1672131;84;20909;-73
2021/12/21 03:55:25;;;;;;;1.85;1.37;;;;;;;-1.84;82.71;101747.84;1664084;84;20948;-73
2021/12/21 03:57:51;;;;;;;8.80;3.47;;;;;;;-1.86;82.73;101743.95;1687921;84;20901;-73
2021/12/21 04:00:18;;;;;;;5.25;3.05;;;;;;;-1.87;82.78;101743.48;1656991;84;20886;-73
2021/12/21 04:02:44;;;;;;;5.20;2.95;;;;;;;-1.88;82.77;101750.61;1671855;85;20964;-73
2021/12/21 04:05:10;;;;;;;3.60;2.00;;;;;;;-1.90;82.78;101753.45;1662155;84;21080;-73
2021/12/21 04:07:36;;;;;;;2.92;1.42;;;;;;;-1.92;82.75;101756.30;1652478;86;21075;-73
2021/12/21 04:10:04;;;;;;;3.42;1.17;;;;;;;-1.92;82.78;101753.77;1633747;86;21032;-73
2021/12/21 04:12:31;;;;;;;3.00;1.42;;;;;;;-1.92;82.80;101757.97;1657612;85;21394;-73
2021/12/21 04:14:58;;;;;;;2.85;1.00;;;;;;;-1.92;82.81;101757.57;1654709;86;20901;-73
2021/12/21 04:17:24;;;;;;;3.10;1.20;;;;;;;-1.95;82.68;101765.02;1654525;86;20957;-73
2021/12/21 04:19:51;;;;;;;3.15;0.90;;;;;;;-1.95;82.73;101765.41;1657653;85;20909;-73
2021/12/21 04:22:19;;;;;;;2.30;1.20;;;;;;;-1.96;82.71;101764.94;1682230;84;20925;-73
2021/12/21 04:24:45;;;;;;;2.35;1.25;;;;;;;-1.96;82.75;101764.94;1682218;84;20902;-73
2021/12/21 04:27:11;;;;;;;2.17;1.00;;;;;;;-1.98;82.75;101764.84;1674969;84;20973;-74
2021/12/21 04:29:37;;;;;;;1.30;1.02;;;;;;;-1.97;82.72;101769.13;1649855;85;20929;-74
2021/12/21 04:32:05;;;;;;;2.33;1.17;;;;;;;-1.97;82.81;101767.86;1668548;85;21008;-74
2021/12/21 04:34:31;;;;;;;3.98;1.75;;;;;;;-1.99;82.72;101764.38;1675597;84;20937;-73
2021/12/21 04:36:57;;;;;;;1.65;1.10;;;;;;;-1.99;82.72;101768.17;1672649;85;20874;-73
2021/12/21 04:39:42;;;;;;;2.47;1.45;;;;;;;-1.99;82.73;101768.17;1658439;85;20949;-73
2021/12/21 04:42:04;;;;;;;3.55;1.40;;;;;;;-1.98;82.79;101771.58;1674888;83;20921;-73
2021/12/21 04:44:31;;;;;;;1.82;1.20;;;;;;;-1.96;82.83;101774.67;1675260;85;20906;-73
2021/12/21 04:46:57;;;;;;;2.85;1.40;;;;;;;-1.94;82.83;101776.02;1664516;85;20941;-73
2021/12/21 04:49:23;;;;;;;2.37;1.20;;;;;;;-1.93;82.82;101777.77;1660475;85;20878;-73
2021/12/21 04:51:49;;;;;;;3.50;1.77;;;;;;;-1.92;82.88;101779.11;1648301;85;20921;-73
2021/12/21 04:54:15;;;;;;;2.85;1.55;;;;;;;-1.88;82.95;101777.61;1648282;86;20933;-73
2021/12/21 04:56:41;;;;;;;5.67;1.95;;;;;;;-1.86;82.89;101776.91;1650908;84;20901;-73
2021/12/21 04:59:07;;;;;;;4.10;2.12;;;;;;;-1.84;82.91;101772.78;1671827;85;20914;-73
2021/12/21 05:01:33;;;;;;;3.00;1.55;;;;;;;-1.83;82.86;101778.73;1675420;84;20996;-73
2021/12/21 05:04:00;;;;;;;4.62;2.37;;;;;;;-1.80;82.92;101776.36;1667420;85;20973;-73
2021/12/21 05:06:26;;;;;;;2.90;2.15;;;;;;;-1.80;82.94;101772.16;1672921;85;21120;-74
2021/12/21 05:09:04;;;;;;;3.10;1.80;;;;;;;-1.76;83.00;101774.45;1645977;85;21060;-74
2021/12/21 05:11:21;;;;;;;4.03;3.10;;;;;;;-1.74;82.96;101776.67;1664459;85;21103;-74
2021/12/21 05:13:47;;;;;;;5.62;3.08;;;;;;;-1.73;82.94;101779.30;1654994;84;22322;-74
2021/12/21 05:16:13;;;;;;;5.33;3.00;;;;;;;-1.70;83.02;101777.31;1646889;85;21064;-74
2021/12/21 05:18:39;;;;;;;5.33;2.42;;;;;;;-1.68;83.00;101777.00;1658882;85;20862;-74
2021/12/21 05:21:05;;;;;;;9.55;4.60;;;;;;;-1.69;82.92;101784.12;1673282;85;21419;-73
2021/12/21 05:23:31;;;;;;;6.62;3.42;;;;;;;-1.70;82.85;101784.92;1652464;85;21295;-74
2021/12/21 05:25:58;;;;;;;6.37;3.17;;;;;;;-1.75;82.81;101779.61;1648327;85;20930;-74
2021/12/21 05:28:24;;;;;;;5.20;2.77;;;;;;;-1.76;82.87;101786.73;1644760;85;20965;-74
2021/12/21 05:30:50;;;;;;;10.18;3.15;;;;;;;-1.74;82.90;101788.09;1633512;85;20898;-73
2021/12/21 05:33:16;;;;;;;4.05;2.90;;;;;;;-1.73;82.94;101782.22;1637354;85;20886;-74
2021/12/21 05:35:42;;;;;;;3.87;2.58;;;;;;;-1.72;82.95;101786.11;1648471;86;24519;-74
2021/12/21 05:38:09;;;;;;;8.75;3.83;;;;;;;-1.69;82.98;101793.88;1644079;86;20878;-74
2021/12/21 05:40:40;;;;;;;7.15;4.87;;;;;;;-1.70;82.93;101788.33;1638369;86;20954;-73
2021/12/21 05:43:07;;;;;;;10.50;5.17;;;;;;;-1.70;82.90;101788.72;1649498;85;20910;-73
2021/12/21 05:45:33;;;;;;;8.85;4.80;;;;;;;-1.73;82.85;101786.90;1648489;86;20946;-73
2021/12/21 05:48:00;;;;;;;;;;;;;;;-1.74;82.89;101783.89;1653315;85;21568;-73
2021/12/21 05:50:26;;;;;;;7.78;4.50;;;;;;;-1.76;82.81;101789.67;1649818;85;20128;-73
2021/12/21 05:52:52;;;;;;;22.65;7.53;;;;;;;-1.79;82.81;101792.05;1650836;85;21004;-73
2021/12/21 05:55:20;;;;;;;22.62;7.53;;;;;;;-1.81;82.81;101791.96;1657815;85;20890;-73
2021/12/21 05:57:46;;;;;;;29.55;8.78;;;;;;;-1.85;82.79;101794.25;1654628;85;20921;-73
2021/12/21 06:00:21;;;;;;;27.60;7.72;;;;;;;-1.90;82.79;101788.94;1649447;85;21036;-73
2021/12/21 06:02:47;;;;;;;61.13;13.62;;;;;;;-1.93;82.76;101793.84;1647771;85;21020;-73
2021/12/21 06:05:13;;;;;;;48.15;11.43;;;;;;;-1.96;82.81;101794.08;1642475;85;21009;-73
2021/12/21 06:07:40;;;;;;;58.38;13.25;;;;;;;-2.02;82.68;101795.49;1650061;85;20910;-72
2021/12/21 06:10:17;;;;;;;96.60;20.70;;;;;;;-2.08;82.64;101800.23;1626537;86;21044;-73
2021/12/21 06:15:43;;;;;;;40.70;9.60;;;;;;;-2.33;82.76;101780.72;1645585;85;21767;-73
2021/12/21 06:26:08;;;;;;;7.75;4.15;;;;;;;-2.42;82.71;101801.73;1651373;85;21068;-72
2021/12/21 06:28:31;;;;;;;8.95;4.05;;;;;;;-2.46;82.67;101804.50;1666051;84;21568;-76
2021/12/21 06:30:57;;;;;;;;;;;;;;;-2.54;82.59;101801.93;1678170;84;21604;-75
2021/12/21 06:33:24;;;;;;;10.45;5.12;;;;;;;-2.56;82.68;101800.97;1628437;86;20436;-74
2021/12/21 06:35:50;;;;;;;8.68;5.12;;;;;;;-2.61;82.55;101805.33;1625691;86;21121;-74
2021/12/21 06:38:17;;;;;;;15.30;8.58;;;;;;;-2.68;82.49;101811.71;1616243;87;21017;-74
2021/12/21 06:40:43;;;;;;;12.37;6.90;;;;;;;-2.74;82.52;101812.63;1618466;86;21876;-74
2021/12/21 06:43:13;;;;;;;;;;;;;;;-2.80;82.52;101813.15;1624406;86;21132;-74
2021/12/21 06:45:50;;;;;;;5.90;3.52;;;;;;;-2.86;82.40;101807.73;1594177;88;20235;-74
2021/12/21 06:53:52;;;;;;;5.47;3.17;;;;;;;-3.07;82.58;101821.68;1618745;86;21467;-74
2021/12/21 06:56:19;;;;;;;7.85;4.58;;;;;;;-3.11;82.58;101823.16;1626241;86;20957;-74
2021/12/21 06:58:46;;;;;;;11.57;5.25;;;;;;;-3.14;82.68;101823.02;1596250;88;20985;-74
2021/12/21 07:01:18;;;;;;;11.80;6.42;;;;;;;-3.18;82.59;101826.54;1598461;88;20941;-74
2021/12/21 07:03:42;;;;;;;9.65;5.50;;;;;;;-3.22;82.56;101828.02;1628368;86;21424;-76
2021/12/21 07:06:09;;;;;;;11.70;5.80;;;;;;;-3.27;82.47;101826.87;1624544;86;22081;-74
2021/12/21 07:08:47;;;;;;;20.08;8.50;;;;;;;-3.31;82.52;101826.20;1627572;86;21533;-74
2021/12/21 07:11:21;;;;;;;12.75;7.42;;;;;;;-3.32;82.68;101823.20;1598022;88;21613;-74
2021/12/21 07:19:11;;;;;;;15.75;7.33;;;;;;;-3.43;82.42;101817.50;1624751;86;21907;-75
2021/12/21 07:21:38;;;;;;;12.98;6.80;;;;;;;-3.49;82.46;101825.98;1597802;88;20937;-75
2021/12/21 07:24:06;;;;;;;18.62;9.40;;;;;;;-3.51;82.47;101830.47;1602590;88;20996;-75
2021/12/21 07:26:33;;;;;;;23.90;10.00;;;;;;;-3.55;82.51;101826.87;1618327;87;21746;-74
2021/12/21 07:28:59;;;;;;;23.87;12.18;;;;;;;-3.56;82.55;101828.92;1616598;87;21320;-74
2021/12/21 07:31:25;;;;;;;38.23;15.53;;;;;;;-3.60;82.47;101831.17;1615307;87;21570;-74
2021/12/21 07:33:51;;;;;;;42.25;15.43;;;;;;;-3.60;82.59;101834.97;1663780;84;21004;-74
2021/12/21 07:36:18;;;;;;;43.83;16.50;;;;;;;-3.63;82.52;101828.45;1666813;84;20910;-74
2021/12/21 07:38:44;;;;;;;16.85;8.60;;;;;;;-3.64;82.52;101829.27;1663192;84;21486;-74
2021/12/21 07:41:10;;;;;;;13.85;7.00;;;;;;;-3.65;82.57;101841.03;1661703;84;21378;-76
2021/12/21 07:43:36;;;;;;;15.38;7.00;;;;;;;-3.63;82.66;101839.83;1661591;85;20922;-76
2021/12/21 07:46:03;;;;;;;13.98;6.87;;;;;;;-3.59;82.75;101837.98;1664642;84;20969;-77
2021/12/21 07:48:30;;;;;;;10.40;5.70;;;;;;;-3.63;83.08;101821.75;1666505;84;20898;-77
2021/12/21 07:50:59;;;;;;;12.28;6.00;;;;;;;-3.63;83.08;101821.75;1661536;84;21388;-77
2021/12/21 07:53:25;;;;;;;13.20;6.87;;;;;;;-3.51;82.74;101833.86;1657708;84;20982;-77
2021/12/21 07:55:54;;;;;;;;;;;;;;;-3.51;82.58;101842.71;1670901;84;21473;-75
2021/12/21 07:58:29;;;;;;;17.75;7.37;;;;;;;-3.51;82.62;101840.58;1660039;85;20178;-76
2021/12/21 08:00:59;;;;;;;16.65;7.37;;;;;;;-3.49;82.71;101846.20;1653577;84;21450;-74
2021/12/21 08:03:26;;;;;;;13.65;6.75;;;;;;;-3.44;82.82;101841.03;1660584;84;21059;-74
2021/12/21 08:05:55;;;;;;;17.80;8.68;;;;;;;-3.35;82.89;101845.77;1653142;84;21449;-75
2021/12/21 08:08:26;;;;;;;24.85;10.08;;;;;;;-3.27;82.92;101839.52;1661476;84;21069;-74
2021/12/21 08:10:55;;;;;;;24.40;9.98;;;;;;;-3.21;82.86;101848.73;1662665;84;21652;-74
2021/12/21 08:13:20;;;;;;;18.05;8.00;;;;;;;-3.14;82.88;101848.31;1658823;84;22336;-74
2021/12/21 08:15:47;;;;;;;;;;;;;;;-3.05;82.93;101849.20;1661765;84;20871;-74
2021/12/21 08:18:13;;;;;;;16.23;7.87;;;;;;;-2.95;82.99;101847.70;1668579;84;20092;-74
2021/12/21 08:20:40;;;;;;;20.70;8.73;;;;;;;-2.86;82.96;101845.70;1655569;84;20973;-76
2021/12/21 08:23:06;;;;;;;16.40;7.53;;;;;;;-2.75;83.07;101847.58;1663243;84;20946;-74
2021/12/21 08:25:33;;;;;;;;;;;;;;;-2.62;83.12;101847.89;1669904;84;21497;-74
2021/12/21 08:28:01;;;;;;;11.60;6.45;;;;;;;-2.50;83.19;101843.09;1661818;84;20163;-74
2021/12/21 08:30:28;;;;;;;11.08;6.33;;;;;;;-2.35;83.23;101849.02;1652494;85;21353;-74
2021/12/21 08:32:57;;;;;;;9.35;5.58;;;;;;;-2.22;83.24;101842.10;1648522;85;21497;-74
2021/12/21 08:35:24;;;;;;;9.15;5.30;;;;;;;-2.10;83.26;101844.92;1652489;85;21569;-74
2021/12/21 08:37:53;;;;;;;8.43;5.62;;;;;;;-1.97;83.21;101848.09;1649226;85;20997;-74
2021/12/21 08:40:22;;;;;;;9.68;5.85;;;;;;;-1.86;83.29;101847.88;1652202;85;20956;-74
2021/12/21 08:42:51;;;;;;;10.63;6.08;;;;;;;-1.74;83.27;101847.67;1641047;85;20892;-75
2021/12/21 08:45:18;;;;;;;11.10;5.83;;;;;;;-1.63;83.21;101849.11;1650653;85;20913;-74
2021/12/21 08:47:44;;;;;;;11.00;6.42;;;;;;;-1.53;83.25;101847.50;1650013;85;20977;-76
2021/12/21 08:50:13;;;;;;;13.68;6.35;;;;;;;-1.43;83.17;101842.52;1644887;85;21024;-75
2021/12/21 08:52:40;;;;;;;9.25;6.15;;;;;;;-1.35;83.16;101845.05;1649002;85;20974;-78
2021/12/21 08:55:11;;;;;;;11.38;6.50;;;;;;;-1.26;83.17;101849.34;1647677;85;21399;-74
2021/12/21 08:57:37;;;;;;;10.85;6.00;;;;;;;-1.17;83.17;101845.12;1644068;85;20874;-74
2021/12/21 09:00:07;;;;;;;7.20;4.90;;;;;;;-1.09;83.16;101845.12;1647134;85;20944;-74
2021/12/21 09:02:36;;;;;;;10.82;5.60;;;;;;;-1.01;83.11;101849.77;1650986;85;20945;-76
2021/12/21 09:05:16;;;;;;;8.90;4.70;;;;;;;-0.94;83.08;101843.33;1650563;85;20945;-77
2021/12/21 09:07:44;;;;;;;8.25;4.87;;;;;;;-0.85;83.11;101851.41;1637407;85;20946;-75
2021/12/21 09:10:13;;;;;;;8.60;4.83;;;;;;;-0.78;83.01;101856.39;1644458;85;20973;-74
2021/12/21 09:12:40;;;;;;;6.22;4.65;;;;;;;-0.73;82.94;101859.64;1650824;85;20906;-74
2021/12/21 09:15:08;;;;;;;7.00;4.25;;;;;;;-0.67;82.99;101858.67;1639620;85;20921;-74
2021/12/21 09:17:35;;;;;;;6.37;4.22;;;;;;;-0.64;82.88;101860.89;1643305;85;21493;-74
2021/12/21 09:20:03;;;;;;;5.92;4.25;;;;;;;-0.57;82.97;101861.27;1634699;85;20957;-74
2021/12/21 09:22:29;;;;;;;7.17;3.70;;;;;;;-0.51;82.96;101855.58;1651726;84;20956;-74
2021/12/21 09:24:57;;;;;;;5.47;3.95;;;;;;;-0.44;82.96;101852.53;1636093;85;20921;-74
2021/12/21 09:27:23;;;;;;;4.87;3.80;;;;;;;-0.35;83.02;101856.80;1638801;85;20934;-74
2021/12/21 09:29:50;;;;;;;8.40;3.72;;;;;;;-0.26;82.97;101859.78;1636829;85;20906;-73
2021/12/21 09:32:18;;;;;;;5.65;3.30;;;;;;;-0.19;82.99;101856.73;1632851;85;20951;-75
2021/12/21 09:34:45;;;;;;;8.90;3.20;;;;;;;-0.11;82.97;101853.28;1628581;85;20922;-74
2021/12/21 09:37:17;;;;;;;7.20;3.60;;;;;;;-0.04;82.85;101856.18;1636699;85;20906;-73
2021/12/21 09:39:47;;;;;;;3.77;2.77;;;;;;;0.02;82.84;101855.96;1640024;84;20906;-73
2021/12/21 09:42:17;;;;;;;4.67;2.85;;;;;;;0.08;82.86;101858.39;1643376;85;20942;-73
2021/12/21 09:44:45;;;;;;;5.90;2.40;;;;;;;0.12;82.88;101853.05;1641904;85;20971;-73
2021/12/21 09:47:12;;;;;;;3.55;2.05;;;;;;;0.18;82.88;101846.97;1636366;85;20957;-73
2021/12/21 09:49:39;;;;;;;5.03;2.47;;;;;;;0.22;82.80;101856.08;1633442;85;20961;-73
2021/12/21 09:52:08;;;;;;;3.45;2.12;;;;;;;0.23;82.75;101848.92;1642112;85;20913;-73
2021/12/21 09:54:37;;;;;;;3.85;1.98;;;;;;;0.25;82.76;101849.86;1634592;85;20958;-74
2021/12/21 09:57:05;;;;;;;1.95;1.27;;;;;;;0.30;82.77;101852.62;1643634;85;20867;-74
2021/12/21 09:59:31;;;;;;;2.15;1.45;;;;;;;0.33;82.78;101854.03;1650161;85;20947;-73
2021/12/21 10:01:58;;;;;;;2.77;1.55;;;;;;;0.35;82.75;101854.09;1644981;85;20918;-73
2021/12/21 10:04:27;;;;;;;2.35;1.50;;;;;;;0.35;82.70;101853.70;1644654;85;49608;-73
2021/12/21 10:06:56;;;;;;;1.92;1.05;;;;;;;0.35;82.71;101849.88;1642302;85;21063;-73
2021/12/21 10:09:27;;;;;;;3.40;1.40;;;;;;;0.36;82.69;101843.98;1641293;85;21068;-75
2021/12/21 10:11:55;;;;;;;1.60;1.05;;;;;;;0.37;82.71;101844.46;1642645;85;21433;-74
2021/12/21 10:14:25;;;;;;;1.62;0.98;;;;;;;0.36;82.68;101852.02;1651035;85;20894;-73
2021/12/21 10:17:07;;;;;;;2.00;1.10;;;;;;;0.37;82.68;101855.91;1647935;85;20890;-74
2021/12/21 10:19:35;;;;;;;4.03;1.20;;;;;;;0.40;82.72;101852.23;1648433;85;20908;-74
2021/12/21 10:22:16;;;;;;;2.62;1.12;;;;;;;0.45;82.68;101843.53;1642972;85;20958;-73
2021/12/21 10:24:49;;;;;;;2.60;1.07;;;;;;;0.47;82.71;101843.20;1646875;85;20961;-74
2021/12/21 10:27:19;;;;;;;2.08;1.17;;;;;;;0.47;82.64;101837.70;1648966;85;20863;-74
2021/12/21 10:29:50;;;;;;;1.22;0.85;;;;;;;0.49;82.67;101839.92;1656687;84;20953;-74
2021/12/21 10:32:24;;;;;;;1.62;0.95;;;;;;;0.51;82.70;101842.53;1669846;83;20871;-74
2021/12/21 10:35:02;;;;;;;1.98;1.07;;;;;;;0.51;82.63;101842.53;1668271;84;21036;-74
2021/12/21 10:37:35;;;;;;;1.85;1.10;;;;;;;0.51;82.60;101840.86;1667689;84;20965;-74
2021/12/21 10:40:24;;;;;;;2.12;1.25;;;;;;;0.55;82.69;101846.52;1666710;84;20961;-74
2021/12/21 10:42:59;;;;;;;1.47;0.80;;;;;;;0.57;82.65;101842.38;1672792;84;21470;-74
2021/12/21 10:45:31;;;;;;;1.85;0.93;;;;;;;0.59;82.62;101839.49;1664947;84;20866;-76
2021/12/21 10:47:59;;;;;;;2.45;1.20;;;;;;;0.62;82.63;101837.48;1665875;84;20933;-74
2021/12/21 10:50:28;;;;;;;2.00;0.98;;;;;;;0.66;82.71;101835.14;1671528;84;20906;-74
2021/12/21 10:52:59;;;;;;;1.00;0.90;;;;;;;0.71;82.64;101837.02;1661483;84;20965;-74
2021/12/21 10:55:35;;;;;;;3.45;1.40;;;;;;;0.73;82.58;101832.86;1668061;84;21458;-75
2021/12/21 10:58:16;;;;;;;3.02;1.00;;;;;;;0.76;82.56;101828.77;1662878;84;20922;-74
2021/12/21 11:00:56;;;;;;;1.52;1.07;;;;;;;0.80;82.58;101835.74;1634216;86;20993;-75
2021/12/21 11:03:50;;;;;;;1.80;0.93;;;;;;;0.83;82.62;101832.05;1630649;86;21012;-74
2021/12/21 11:06:18;;;;;;;1.17;0.90;;;;;;;0.81;82.51;101836.21;1601565;87;21061;-74
2021/12/21 11:08:48;;;;;;;1.10;1.00;;;;;;;0.81;82.46;101841.30;1588397;88;21076;-74
2021/12/21 11:11:42;;;;;;;2.98;0.70;;;;;;;0.83;82.49;101834.60;1601133;87;20994;-74
2021/12/21 11:14:17;;;;;;;1.75;1.10;;;;;;;0.84;82.44;101833.80;1600285;88;20990;-74
2021/12/21 11:16:48;;;;;;;1.15;0.80;;;;;;;0.86;82.46;101837.28;1600640;87;21123;-74
2021/12/21 11:19:18;;;;;;;1.35;1.07;;;;;;;0.88;82.45;101828.44;1601070;87;21151;-75
2021/12/21 11:21:45;;;;;;;1.57;1.15;;;;;;;0.91;82.50;101830.70;1600728;87;21172;-75
2021/12/21 11:24:18;;;;;;;1.20;0.78;;;;;;;0.94;82.43;101833.38;1602629;87;22258;-74
2021/12/21 11:26:47;;;;;;;1.67;0.88;;;;;;;0.93;82.41;101830.37;1600071;87;21139;-76
2021/12/21 11:29:18;;;;;;;1.35;0.70;;;;;;;0.93;82.39;101824.00;1588111;88;21124;-75
2021/12/21 11:31:49;;;;;;;1.20;0.85;;;;;;;0.95;82.36;101816.03;1584546;88;21140;-75
2021/12/21 11:34:21;;;;;;;5.83;0.70;;;;;;;0.93;82.30;101818.91;1596931;87;21110;-74
2021/12/21 11:39:35;;;;;;;4.37;0.93;;;;;;;0.92;82.27;101819.72;1624752;86;21116;-74
2021/12/21 11:42:06;;;;;;;1.75;1.15;;;;;;;0.91;82.21;101824.34;1626342;86;21097;-75
2021/12/21 11:44:49;;;;;;;1.62;0.85;;;;;;;0.91;82.20;101824.74;1607850;87;21100;-75
2021/12/21 11:47:19;;;;;;;1.50;1.00;;;;;;;0.88;82.16;101822.06;1610145;86;21014;-75
2021/12/21 11:49:50;;;;;;;1.57;1.10;;;;;;;0.86;82.17;101823.67;1626791;86;20922;-74
2021/12/21 11:52:21;;;;;;;2.33;1.27;;;;;;;0.86;82.11;101822.41;1624132;87;21438;-74
2021/12/21 11:55:07;;;;;;;6.20;2.20;;;;;;;0.83;82.14;101819.73;1628136;86;21001;-74
2021/12/21 11:57:38;;;;;;;4.90;2.33;;;;;;;0.79;82.06;101814.03;1627092;86;20982;-74
2021/12/21 12:00:10;;;;;;;5.92;2.85;;;;;;;0.75;82.05;101815.98;1627595;87;20966;-75
2021/12/21 12:02:38;;;;;;;6.22;3.00;;;;;;;0.74;81.98;101807.88;1629072;87;20977;-75
2021/12/21 12:05:27;;;;;;;5.35;2.87;;;;;;;0.72;82.06;101810.76;1627981;87;21533;-75
2021/12/21 12:08:13;;;;;;;4.90;3.12;;;;;;;0.71;82.08;101809.02;1627614;86;20890;-76
2021/12/21 12:10:50;;;;;;;5.42;4.12;;;;;;;0.70;82.11;101801.78;1628038;87;20978;-74
2021/12/21 12:13:33;;;;;;;8.03;4.05;;;;;;;0.70;82.11;101808.14;1619651;87;20958;-74
2021/12/21 12:16:10;;;;;;;12.13;6.35;;;;;;;0.72;82.10;101804.39;1626087;87;20910;-75
2021/12/21 12:18:50;;;;;;;10.03;5.22;;;;;;;0.71;82.13;101795.89;1627970;86;21046;-75
2021/12/21 12:21:26;;;;;;;8.40;4.90;;;;;;;0.72;82.09;101798.03;1631530;87;21467;-75
2021/12/21 12:24:02;;;;;;;16.35;6.58;;;;;;;0.74;82.15;101797.69;1626673;87;21604;-74